Wilson Lista — 8PRW — position and weather

sailwx.info

Track history (hours):
 
Tides and Currents Weather Stations Pressure Air Temp Water Temp Dewpoint Dewpoint Depression Visibility Wind Speed Wind Dir Waves Ship Positions

Wilson Lista

Last reported at 2015-Jul-07 05:33 UTC. Time now 2015-Jul-07 06:46 UTC.
Position N 51°34' E 003°24'.

Length 88 m; draft 5.5 m.

Type: Cargo ship. MMSI: 314188000.

Date/timePositionNaut miles runAvg speedWind from/ knotsBaromVisibWave heightAir tempDewpointWater temp
2015-Jul-07 05:33N 51°34' E 003°24'10 9.9
2015-Jul-07 04:33N 51°26' E 003°34'5 5.1
2015-Jul-07 03:32N 51°27' E 003°42'0 0.0
2015-Jul-07 02:31N 51°27' E 003°42'0 0.0
2015-Jul-07 01:28N 51°27' E 003°42'0 0.0
2015-Jul-07 00:33N 51°27' E 003°42'0 0.0
2015-Jul-06 23:33N 51°27' E 003°42'0 0.0
2015-Jul-06 22:30N 51°27' E 003°42'0 0.0
2015-Jul-06 21:29N 51°27' E 003°42'0 0.0
2015-Jul-06 20:26N 51°27' E 003°42'0 0.0
2015-Jul-06 19:28N 51°27' E 003°42'0 0.0
2015-Jul-06 18:31N 51°27' E 003°42'0 0.0
2015-Jul-06 17:33N 51°27' E 003°42'0 0.1
2015-Jul-06 16:33N 51°27' E 003°42'0 0.0
2015-Jul-06 15:20N 51°27' E 003°42'0 0.0
2015-Jul-06 14:32N 51°27' E 003°42'0 0.0
2015-Jul-06 13:26N 51°27' E 003°42'0 0.0
2015-Jul-06 12:31N 51°27' E 003°42'0 0.0
2015-Jul-06 11:31N 51°27' E 003°42'1 0.9
2015-Jul-06 10:34N 51°28' E 003°41'6 6.5
2015-Jul-06 09:34N 51°28' E 003°31'20 0.8
2015-Jul-05 09:03N 51°46' E 003°19'0 0.1
2015-Jul-05 08:21N 51°46' E 003°20'0 0.1
2015-Jul-05 07:17N 51°46' E 003°19'0 0.0
2015-Jul-05 06:17N 51°46' E 003°20'0 0.0
2015-Jul-05 05:26N 51°46' E 003°20'0 0.0
2015-Jul-04 22:07N 51°46' E 003°19'0 0.0
2015-Jul-04 15:07N 51°46' E 003°20'0 0.0
2015-Jul-04 14:16N 51°46' E 003°20'0 0.1
2015-Jul-04 13:33N 51°46' E 003°20'0 0.1
2015-Jul-04 12:33N 51°46' E 003°19'10 8.2
2015-Jul-04 11:22N 51°48' E 003°04'8 9.3
2015-Jul-04 10:33N 51°53' E 002°54'9 9.5
2015-Jul-04 09:34N 52°00' E 002°44'1010.1
2015-Jul-04 08:33N 52°08' E 002°34'10 9.9
2015-Jul-04 07:33N 52°15' E 002°23'19 9.1
2015-Jul-04 05:32N 52°30' E 002°04'7 7.5
2015-Jul-04 04:33N 52°35' E 001°56'7 6.6
2015-Jul-04 03:33N 52°41' E 001°49'6 5.7
2015-Jul-04 02:33N 52°45' E 001°44'7 6.5
2015-Jul-04 01:33N 52°50' E 001°36'7 7.2
2015-Jul-04 00:33N 52°55' E 001°27'7 7.5
2015-Jul-03 23:33N 52°58' E 001°16'7 0.1
2015-Jul-02 00:06N 53°02' E 001°08'711.9
2015-Jul-01 23:33N 52°59' E 001°17'1211.7
2015-Jul-01 22:33N 52°52' E 001°33'1010.2
2015-Jul-01 21:33N 52°44' E 001°44'8 8.3
2015-Jul-01 20:33N 52°38' E 001°52'8 7.8
2015-Jul-01 19:33N 52°30' E 001°55'8 8.3
2015-Jul-01 18:33N 52°22' E 001°58'9 9.5
2015-Jul-01 17:33N 52°13' E 002°02'1110.8
2015-Jul-01 16:33N 52°02' E 002°06'2211.0
2015-Jul-01 14:33N 51°40' E 001°59'1211.8
2015-Jul-01 13:33N 51°30' E 001°51'1212.4
2015-Jul-01 12:33N 51°18' E 001°44'1211.6
2015-Jul-01 11:33N 51°07' E 001°41'2512.5
2015-Jul-01 09:32N 50°45' E 001°21'1111.2
2015-Jul-01 08:32N 50°36' E 001°11'68 9.7
2015-Jul-01 01:32N 49°44' E 000°03'9 9.6
2015-Jul-01 00:33N 49°35' W 000°01'9 9.1
2015-Jun-30 23:33N 49°26' E 000°04'1110.7
2015-Jun-30 22:33N 49°26' E 000°21'8 8.0
2015-Jun-30 21:33N 49°28' E 000°33'10 4.7
2015-Jun-30 19:26N 49°29' E 000°48'2 0.1
2015-Jun-29 18:33N 49°27' E 000°49'6 6.0
2015-Jun-29 17:34N 49°27' E 000°40'7 7.0
2015-Jun-29 16:32N 49°29' E 000°29'0 0.0
2015-Jun-29 15:31N 49°29' E 000°29'0 0.0
2015-Jun-29 14:31N 49°29' E 000°29'0 0.0
2015-Jun-29 13:28N 49°29' E 000°29'0 0.0
2015-Jun-29 12:21N 49°29' E 000°29'0 0.0
2015-Jun-29 11:33N 49°29' E 000°29'0 0.0
2015-Jun-29 10:29N 49°29' E 000°29'0 0.0
2015-Jun-29 09:32N 49°29' E 000°29'0 0.0
2015-Jun-29 08:28N 49°29' E 000°29'0 0.0
2015-Jun-29 07:28N 49°29' E 000°29'0 0.0
2015-Jun-29 06:31N 49°29' E 000°29'0 0.0
2015-Jun-29 05:33N 49°29' E 000°29'0 0.0
2015-Jun-29 04:33N 49°29' E 000°29'0 0.0
2015-Jun-29 03:32N 49°29' E 000°29'0 0.0
2015-Jun-29 02:32N 49°29' E 000°29'0 0.0
2015-Jun-29 01:25N 49°29' E 000°29'0 0.0
2015-Jun-29 00:31N 49°29' E 000°29'0 0.0
2015-Jun-28 23:31N 49°29' E 000°29'0 0.0
2015-Jun-28 22:33N 49°29' E 000°29'0 0.0
2015-Jun-28 21:33N 49°29' E 000°29'0 0.0
2015-Jun-28 20:20N 49°29' E 000°29'0 0.0
2015-Jun-28 19:23N 49°29' E 000°29'0 0.0
2015-Jun-28 18:28N 49°29' E 000°29'0 0.0
2015-Jun-28 17:31N 49°29' E 000°29'0 0.0
2015-Jun-28 16:30N 49°29' E 000°29'0 0.0
2015-Jun-28 15:33N 49°29' E 000°29'0 0.0
2015-Jun-28 14:33N 49°29' E 000°29'0 0.0
2015-Jun-28 13:32N 49°29' E 000°29'0 0.0
2015-Jun-28 12:32N 49°29' E 000°29'0 0.0
2015-Jun-28 11:31N 49°29' E 000°29'0 0.0
2015-Jun-28 10:31N 49°29' E 000°29'0 0.0
2015-Jun-28 09:33N 49°29' E 000°29'0 0.0
2015-Jun-28 08:33N 49°29' E 000°29'0 0.0
2015-Jun-28 07:30N 49°29' E 000°29'0 0.0
2015-Jun-28 06:29N 49°29' E 000°29'0 0.0
2015-Jun-28 05:29N 49°29' E 000°29'0 0.0
2015-Jun-28 04:31N 49°29' E 000°29'0 0.0
2015-Jun-28 03:31N 49°29' E 000°29'0 0.0
2015-Jun-28 02:30N 49°29' E 000°29'0 0.0
2015-Jun-28 01:33N 49°29' E 000°29'0 0.0
2015-Jun-28 00:33N 49°29' E 000°29'0 0.0
2015-Jun-27 23:32N 49°29' E 000°29'0 0.0
2015-Jun-27 22:32N 49°29' E 000°29'0 0.0
2015-Jun-27 21:31N 49°29' E 000°29'0 0.0
2015-Jun-27 20:31N 49°29' E 000°29'0 0.0
2015-Jun-27 19:30N 49°29' E 000°29'0 0.0
2015-Jun-27 18:30N 49°29' E 000°29'0 0.0
2015-Jun-27 17:33N 49°29' E 000°29'0 0.0
2015-Jun-27 16:23N 49°29' E 000°29'0 0.0
2015-Jun-27 15:32N 49°29' E 000°29'0 0.0
2015-Jun-27 14:31N 49°29' E 000°29'0 0.0
2015-Jun-27 13:31N 49°29' E 000°29'0 0.0
2015-Jun-27 12:33N 49°29' E 000°29'0 0.0
2015-Jun-27 11:30N 49°29' E 000°29'0 0.0
2015-Jun-27 10:29N 49°29' E 000°29'0 0.0
2015-Jun-27 09:32N 49°29' E 000°29'0 0.0
2015-Jun-27 08:32N 49°29' E 000°29'0 0.0
2015-Jun-27 07:28N 49°29' E 000°29'0 0.0
2015-Jun-27 06:28N 49°29' E 000°29'  
Track history (hours):
 
Tides and Currents Weather Stations Pressure Air Temp Water Temp Dewpoint Dewpoint Depression Visibility Wind Speed Wind Dir Waves Ship Positions

Wilson Lista

Last reported at 2015-Jul-07 05:33 UTC. Time now 2015-Jul-07 06:46 UTC.
Position N 51°34' E 003°24'.

Length 88 m; draft 5.5 m.

Type: Cargo ship. MMSI: 314188000.

Date/timePositionNaut miles runAvg speedWind from/ knotsBaromVisibWave heightAir tempDewpointWater temp
2015-Jul-07 05:33N 51°34' E 003°24'10 9.9
2015-Jul-07 04:33N 51°26' E 003°34'5 5.1
2015-Jul-07 03:32N 51°27' E 003°42'0 0.0
2015-Jul-07 02:31N 51°27' E 003°42'0 0.0
2015-Jul-07 01:28N 51°27' E 003°42'0 0.0
2015-Jul-07 00:33N 51°27' E 003°42'0 0.0
2015-Jul-06 23:33N 51°27' E 003°42'0 0.0
2015-Jul-06 22:30N 51°27' E 003°42'0 0.0
2015-Jul-06 21:29N 51°27' E 003°42'0 0.0
2015-Jul-06 20:26N 51°27' E 003°42'0 0.0
2015-Jul-06 19:28N 51°27' E 003°42'0 0.0
2015-Jul-06 18:31N 51°27' E 003°42'0 0.0
2015-Jul-06 17:33N 51°27' E 003°42'0 0.1
2015-Jul-06 16:33N 51°27' E 003°42'0 0.0
2015-Jul-06 15:20N 51°27' E 003°42'0 0.0
2015-Jul-06 14:32N 51°27' E 003°42'0 0.0
2015-Jul-06 13:26N 51°27' E 003°42'0 0.0
2015-Jul-06 12:31N 51°27' E 003°42'0 0.0
2015-Jul-06 11:31N 51°27' E 003°42'1 0.9
2015-Jul-06 10:34N 51°28' E 003°41'6 6.5
2015-Jul-06 09:34N 51°28' E 003°31'20 0.8
2015-Jul-05 09:03N 51°46' E 003°19'0 0.1
2015-Jul-05 08:21N 51°46' E 003°20'0 0.1
2015-Jul-05 07:17N 51°46' E 003°19'0 0.0
2015-Jul-05 06:17N 51°46' E 003°20'0 0.0
2015-Jul-05 05:26N 51°46' E 003°20'0 0.0
2015-Jul-04 22:07N 51°46' E 003°19'0 0.0
2015-Jul-04 15:07N 51°46' E 003°20'0 0.0
2015-Jul-04 14:16N 51°46' E 003°20'0 0.1
2015-Jul-04 13:33N 51°46' E 003°20'0 0.1
2015-Jul-04 12:33N 51°46' E 003°19'10 8.2
2015-Jul-04 11:22N 51°48' E 003°04'8 9.3
2015-Jul-04 10:33N 51°53' E 002°54'9 9.5
2015-Jul-04 09:34N 52°00' E 002°44'1010.1
2015-Jul-04 08:33N 52°08' E 002°34'10 9.9
2015-Jul-04 07:33N 52°15' E 002°23'19 9.1
2015-Jul-04 05:32N 52°30' E 002°04'7 7.5
2015-Jul-04 04:33N 52°35' E 001°56'7 6.6
2015-Jul-04 03:33N 52°41' E 001°49'6 5.7
2015-Jul-04 02:33N 52°45' E 001°44'7 6.5
2015-Jul-04 01:33N 52°50' E 001°36'7 7.2
2015-Jul-04 00:33N 52°55' E 001°27'7 7.5
2015-Jul-03 23:33N 52°58' E 001°16'7 0.1
2015-Jul-02 00:06N 53°02' E 001°08'711.9
2015-Jul-01 23:33N 52°59' E 001°17'1211.7
2015-Jul-01 22:33N 52°52' E 001°33'1010.2
2015-Jul-01 21:33N 52°44' E 001°44'8 8.3
2015-Jul-01 20:33N 52°38' E 001°52'8 7.8
2015-Jul-01 19:33N 52°30' E 001°55'8 8.3
2015-Jul-01 18:33N 52°22' E 001°58'9 9.5
2015-Jul-01 17:33N 52°13' E 002°02'1110.8
2015-Jul-01 16:33N 52°02' E 002°06'2211.0
2015-Jul-01 14:33N 51°40' E 001°59'1211.8
2015-Jul-01 13:33N 51°30' E 001°51'1212.4
2015-Jul-01 12:33N 51°18' E 001°44'1211.6
2015-Jul-01 11:33N 51°07' E 001°41'2512.5
2015-Jul-01 09:32N 50°45' E 001°21'1111.2
2015-Jul-01 08:32N 50°36' E 001°11'68 9.7
2015-Jul-01 01:32N 49°44' E 000°03'9 9.6
2015-Jul-01 00:33N 49°35' W 000°01'9 9.1
2015-Jun-30 23:33N 49°26' E 000°04'1110.7
2015-Jun-30 22:33N 49°26' E 000°21'8 8.0
2015-Jun-30 21:33N 49°28' E 000°33'10 4.7
2015-Jun-30 19:26N 49°29' E 000°48'2 0.1
2015-Jun-29 18:33N 49°27' E 000°49'6 6.0
2015-Jun-29 17:34N 49°27' E 000°40'7 7.0
2015-Jun-29 16:32N 49°29' E 000°29'0 0.0
2015-Jun-29 15:31N 49°29' E 000°29'0 0.0
2015-Jun-29 14:31N 49°29' E 000°29'0 0.0
2015-Jun-29 13:28N 49°29' E 000°29'0 0.0
2015-Jun-29 12:21N 49°29' E 000°29'0 0.0
2015-Jun-29 11:33N 49°29' E 000°29'0 0.0
2015-Jun-29 10:29N 49°29' E 000°29'0 0.0
2015-Jun-29 09:32N 49°29' E 000°29'0 0.0
2015-Jun-29 08:28N 49°29' E 000°29'0 0.0
2015-Jun-29 07:28N 49°29' E 000°29'0 0.0
2015-Jun-29 06:31N 49°29' E 000°29'0 0.0
2015-Jun-29 05:33N 49°29' E 000°29'0 0.0
2015-Jun-29 04:33N 49°29' E 000°29'0 0.0
2015-Jun-29 03:32N 49°29' E 000°29'0 0.0
2015-Jun-29 02:32N 49°29' E 000°29'0 0.0
2015-Jun-29 01:25N 49°29' E 000°29'0 0.0
2015-Jun-29 00:31N 49°29' E 000°29'0 0.0
2015-Jun-28 23:31N 49°29' E 000°29'0 0.0
2015-Jun-28 22:33N 49°29' E 000°29'0 0.0
2015-Jun-28 21:33N 49°29' E 000°29'0 0.0
2015-Jun-28 20:20N 49°29' E 000°29'0 0.0
2015-Jun-28 19:23N 49°29' E 000°29'0 0.0
2015-Jun-28 18:28N 49°29' E 000°29'0 0.0
2015-Jun-28 17:31N 49°29' E 000°29'0 0.0
2015-Jun-28 16:30N 49°29' E 000°29'0 0.0
2015-Jun-28 15:33N 49°29' E 000°29'0 0.0
2015-Jun-28 14:33N 49°29' E 000°29'0 0.0
2015-Jun-28 13:32N 49°29' E 000°29'0 0.0
2015-Jun-28 12:32N 49°29' E 000°29'0 0.0
2015-Jun-28 11:31N 49°29' E 000°29'0 0.0
2015-Jun-28 10:31N 49°29' E 000°29'0 0.0
2015-Jun-28 09:33N 49°29' E 000°29'0 0.0
2015-Jun-28 08:33N 49°29' E 000°29'0 0.0
2015-Jun-28 07:30N 49°29' E 000°29'0 0.0
2015-Jun-28 06:29N 49°29' E 000°29'0 0.0
2015-Jun-28 05:29N 49°29' E 000°29'0 0.0
2015-Jun-28 04:31N 49°29' E 000°29'0 0.0
2015-Jun-28 03:31N 49°29' E 000°29'0 0.0
2015-Jun-28 02:30N 49°29' E 000°29'0 0.0
2015-Jun-28 01:33N 49°29' E 000°29'0 0.0
2015-Jun-28 00:33N 49°29' E 000°29'0 0.0
2015-Jun-27 23:32N 49°29' E 000°29'0 0.0
2015-Jun-27 22:32N 49°29' E 000°29'0 0.0
2015-Jun-27 21:31N 49°29' E 000°29'0 0.0
2015-Jun-27 20:31N 49°29' E 000°29'0 0.0
2015-Jun-27 19:30N 49°29' E 000°29'0 0.0
2015-Jun-27 18:30N 49°29' E 000°29'0 0.0
2015-Jun-27 17:33N 49°29' E 000°29'0 0.0
2015-Jun-27 16:23N 49°29' E 000°29'0 0.0
2015-Jun-27 15:32N 49°29' E 000°29'0 0.0
2015-Jun-27 14:31N 49°29' E 000°29'0 0.0
2015-Jun-27 13:31N 49°29' E 000°29'0 0.0
2015-Jun-27 12:33N 49°29' E 000°29'0 0.0
2015-Jun-27 11:30N 49°29' E 000°29'0 0.0
2015-Jun-27 10:29N 49°29' E 000°29'0 0.0
2015-Jun-27 09:32N 49°29' E 000°29'0 0.0
2015-Jun-27 08:32N 49°29' E 000°29'0 0.0
2015-Jun-27 07:28N 49°29' E 000°29'0 0.0
2015-Jun-27 06:28N 49°29' E 000°29'  

Dump ship's entire track history